createdAt,value
2018-04-24T00:00:12.587Z,8.23
2018-04-24T00:01:12.518Z,8.23
2018-04-24T00:02:21.011Z,8.25
2018-04-24T00:03:12.427Z,8.26
2018-04-24T00:04:12.433Z,8.16
2018-04-24T00:05:12.333Z,8.18
2018-04-24T00:06:12.292Z,8.22
2018-04-24T00:07:12.282Z,8.28
2018-04-24T00:08:12.238Z,8.25
2018-04-24T00:09:12.200Z,8.25
2018-04-24T00:10:12.144Z,8.26
2018-04-24T00:11:12.104Z,8.36
2018-04-24T00:12:12.074Z,8.23
2018-04-24T00:13:12.054Z,8.26
2018-04-24T00:14:12.022Z,8.33
2018-04-24T00:15:11.942Z,8.26
2018-04-24T00:16:11.952Z,8.23
2018-04-24T00:17:11.907Z,8.29
2018-04-24T00:18:11.918Z,8.26
2018-04-24T00:19:11.804Z,8.26
2018-04-24T00:20:11.765Z,8.22
2018-04-24T00:21:11.759Z,8.23
2018-04-24T00:22:11.682Z,8.22
2018-04-24T00:23:11.643Z,8.15
2018-04-24T00:24:11.609Z,8.16
2018-04-24T00:25:11.591Z,8.07
2018-04-24T00:26:11.616Z,8.05
2018-04-24T00:27:11.488Z,8.08
2018-04-24T00:28:11.455Z,8.05
2018-04-24T00:29:11.424Z,8.12
2018-04-24T00:30:11.382Z,7.95
2018-04-24T00:31:11.347Z,7.93
2018-04-24T00:32:11.316Z,7.97
2018-04-24T00:33:11.250Z,7.97
2018-04-24T00:34:11.210Z,7.95
2018-04-24T00:35:11.208Z,7.98
2018-04-24T00:36:11.143Z,7.97
2018-04-24T00:37:11.142Z,8.01
2018-04-24T00:38:11.154Z,7.89
2018-04-24T00:39:11.036Z,8.00
2018-04-24T00:40:10.986Z,8.00
2018-04-24T00:41:11.000Z,7.97
2018-04-24T00:42:10.919Z,7.97
2018-04-24T00:43:10.875Z,7.93
2018-04-24T00:44:10.886Z,7.87
2018-04-24T00:45:10.813Z,8.00
2018-04-24T00:46:10.747Z,7.92
2018-04-24T00:47:10.724Z,7.92
2018-04-24T00:48:10.691Z,7.95
2018-04-24T00:49:10.633Z,7.98
2018-04-24T00:50:10.594Z,7.86
2018-04-24T00:51:10.543Z,7.79
2018-04-24T00:52:10.546Z,7.87
2018-04-24T00:53:10.476Z,7.83
2018-04-24T00:54:10.452Z,7.71
2018-04-24T00:55:10.443Z,7.85
2018-04-24T00:56:10.394Z,7.71
2018-04-24T00:57:10.363Z,7.71
2018-04-24T00:58:10.296Z,7.75
2018-04-24T00:59:10.270Z,7.69
2018-04-24T01:00:10.226Z,7.80
2018-04-24T01:01:10.186Z,7.74
2018-04-24T01:02:10.130Z,7.72
2018-04-24T01:03:10.124Z,7.79
2018-04-24T01:04:10.105Z,7.80
2018-04-24T01:05:10.035Z,7.75
2018-04-24T01:06:09.993Z,7.79
2018-04-24T01:07:09.956Z,7.82
2018-04-24T01:08:09.903Z,7.89
2018-04-24T01:09:09.866Z,7.85
2018-04-24T01:10:09.832Z,7.75
2018-04-24T01:11:09.793Z,7.79
2018-04-24T01:12:09.755Z,7.75
2018-04-24T01:13:09.720Z,7.74
2018-04-24T01:14:09.661Z,7.86
2018-04-24T01:15:09.630Z,7.82
2018-04-24T01:16:09.596Z,7.86
2018-04-24T01:17:09.555Z,7.79
2018-04-24T01:18:09.507Z,7.75
2018-04-24T01:19:09.482Z,7.72
2018-04-24T01:20:09.438Z,7.80
2018-04-24T01:21:09.404Z,7.71
2018-04-24T01:22:09.383Z,7.64
2018-04-24T01:23:09.377Z,7.67
2018-04-24T01:24:09.288Z,7.58
2018-04-24T01:25:09.262Z,7.60
2018-04-24T01:26:09.201Z,7.61
2018-04-24T01:27:09.189Z,7.58
2018-04-24T01:28:09.125Z,7.61
2018-04-24T01:29:09.095Z,7.57
2018-04-24T01:30:09.045Z,7.57
2018-04-24T01:31:09.027Z,7.61
2018-04-24T01:32:08.982Z,7.68
2018-04-24T01:33:08.948Z,7.68
2018-04-24T01:34:08.904Z,7.72
2018-04-24T01:35:09.561Z,7.72
2018-04-24T01:36:08.827Z,7.77
2018-04-24T01:37:08.776Z,7.68
2018-04-24T01:38:08.740Z,7.71
2018-04-24T01:39:08.711Z,7.69
2018-04-24T01:40:08.676Z,7.80
2018-04-24T01:41:08.639Z,7.79
2018-04-24T01:42:08.567Z,7.80
2018-04-24T01:43:08.559Z,7.71
2018-04-24T01:44:08.520Z,7.63
2018-04-24T01:45:08.476Z,7.67
2018-04-24T01:46:08.463Z,7.58
2018-04-24T01:47:08.395Z,7.60
2018-04-24T01:48:08.381Z,7.61
2018-04-24T01:49:08.307Z,7.63
2018-04-24T01:50:08.254Z,7.60
2018-04-24T01:51:08.245Z,7.61
2018-04-24T01:52:08.190Z,7.67
2018-04-24T01:53:08.173Z,7.63
2018-04-24T01:54:08.103Z,7.57
2018-04-24T01:55:08.124Z,7.61
2018-04-24T01:56:08.098Z,7.53
2018-04-24T01:57:08.016Z,7.23
2018-04-24T01:58:07.996Z,7.27
2018-04-24T01:59:07.915Z,7.28
2018-04-24T02:00:07.874Z,7.17
2018-04-24T02:01:07.878Z,7.24
2018-04-24T02:02:07.814Z,7.28
2018-04-24T02:03:07.766Z,7.23
2018-04-24T02:04:07.737Z,7.30
2018-04-24T02:05:07.727Z,7.28
2018-04-24T02:06:07.648Z,7.30
2018-04-24T02:07:07.596Z,7.40
2018-04-24T02:08:07.556Z,7.46
2018-04-24T02:09:07.550Z,7.48
2018-04-24T02:10:07.480Z,7.58
2018-04-24T02:11:07.459Z,7.46
2018-04-24T02:12:07.412Z,7.55
2018-04-24T02:13:07.365Z,7.57
2018-04-24T02:14:07.393Z,7.61
2018-04-24T02:15:07.288Z,7.49
2018-04-24T02:16:07.236Z,7.53
2018-04-24T02:17:07.235Z,7.34
2018-04-24T02:18:07.187Z,7.27
2018-04-24T02:19:07.126Z,7.27
2018-04-24T02:20:07.094Z,7.35
2018-04-24T02:21:07.072Z,7.28
2018-04-24T02:22:07.009Z,7.25
2018-04-24T02:23:06.992Z,7.32
2018-04-24T02:24:06.968Z,7.28
2018-04-24T02:25:06.940Z,7.28
2018-04-24T02:26:07.564Z,7.28
2018-04-24T02:27:06.808Z,7.15
2018-04-24T02:28:06.772Z,7.10
2018-04-24T02:29:06.796Z,7.02
2018-04-24T02:30:06.738Z,6.88
2018-04-24T02:31:06.672Z,6.89
2018-04-24T02:32:06.618Z,6.99
2018-04-24T02:33:06.562Z,7.21
2018-04-24T02:34:06.607Z,7.25
2018-04-24T02:35:06.512Z,7.28
2018-04-24T02:36:06.488Z,7.34
2018-04-24T02:37:06.409Z,7.31
2018-04-24T02:38:06.371Z,7.24
2018-04-24T02:39:06.333Z,7.21
2018-04-24T02:40:06.311Z,7.17
2018-04-24T02:41:06.250Z,7.20
2018-04-24T02:42:06.219Z,7.23
2018-04-24T02:43:06.180Z,7.09
2018-04-24T02:44:06.141Z,7.15
2018-04-24T02:45:06.107Z,7.10
2018-04-24T02:46:06.085Z,7.07
2018-04-24T02:47:06.019Z,7.07
2018-04-24T02:48:05.982Z,7.20
2018-04-24T02:49:05.960Z,7.23
2018-04-24T02:50:05.913Z,7.30
2018-04-24T02:51:05.862Z,7.28
2018-04-24T02:52:05.835Z,7.15
2018-04-24T02:53:05.796Z,7.20
2018-04-24T02:54:05.769Z,7.28
2018-04-24T02:55:05.700Z,7.34
2018-04-24T02:56:05.701Z,7.31
2018-04-24T02:57:05.628Z,7.28
2018-04-24T02:58:05.574Z,7.20
2018-04-24T02:59:05.536Z,7.12
2018-04-24T03:00:05.500Z,7.12
2018-04-24T03:01:05.516Z,7.16
2018-04-24T03:02:05.413Z,7.16
2018-04-24T03:03:05.389Z,7.25
2018-04-24T03:04:05.362Z,7.20
2018-04-24T03:05:05.289Z,6.94
2018-04-24T03:06:05.275Z,6.64
2018-04-24T03:07:05.219Z,6.61
2018-04-24T03:08:05.203Z,6.70
2018-04-24T03:09:05.142Z,6.67
2018-04-24T03:10:05.111Z,6.66
2018-04-24T03:11:05.056Z,6.69
2018-04-24T03:12:05.046Z,6.85
2018-04-24T03:13:05.022Z,7.03
2018-04-24T03:14:04.965Z,7.02
2018-04-24T03:15:04.909Z,6.98
2018-04-24T03:16:04.855Z,6.97
2018-04-24T03:17:04.831Z,6.95
2018-04-24T03:18:04.813Z,6.97
2018-04-24T03:19:04.753Z,7.02
2018-04-24T03:20:04.765Z,7.13
2018-04-24T03:21:04.701Z,7.28
2018-04-24T03:22:04.632Z,7.30
2018-04-24T03:23:04.619Z,7.31
2018-04-24T03:24:04.548Z,7.43
2018-04-24T03:25:04.504Z,7.34
2018-04-24T03:26:04.507Z,7.28
2018-04-24T03:27:04.435Z,7.42
2018-04-24T03:28:04.394Z,7.27
2018-04-24T03:29:04.452Z,7.17
2018-04-24T03:30:04.352Z,7.20
2018-04-24T03:31:04.272Z,7.23
2018-04-24T03:32:04.239Z,7.16
2018-04-24T03:33:04.188Z,7.07
2018-04-24T03:34:04.140Z,7.25
2018-04-24T03:35:04.137Z,7.28
2018-04-24T03:36:04.069Z,7.28
2018-04-24T03:37:04.035Z,7.28
2018-04-24T03:38:04.072Z,7.35
2018-04-24T03:39:03.960Z,7.31
2018-04-24T03:40:03.915Z,7.35
2018-04-24T03:41:03.878Z,7.37
2018-04-24T03:42:03.922Z,7.39
2018-04-24T03:43:03.812Z,7.40
2018-04-24T03:44:03.826Z,7.43
2018-04-24T03:45:03.735Z,7.35
2018-04-24T03:46:03.689Z,7.40
2018-04-24T03:47:03.698Z,7.37
2018-04-24T03:48:03.627Z,7.34
2018-04-24T03:49:03.594Z,7.31
2018-04-24T03:50:03.531Z,7.42
2018-04-24T03:51:03.688Z,7.34
2018-04-24T03:52:03.446Z,7.39
2018-04-24T03:53:03.389Z,7.39
2018-04-24T03:54:03.371Z,7.40
2018-04-24T03:55:03.321Z,7.40
2018-04-24T03:56:03.274Z,7.52
2018-04-24T03:57:03.230Z,7.42
2018-04-24T03:58:03.216Z,7.46
2018-04-24T03:59:03.161Z,7.49
2018-04-24T04:00:03.137Z,7.49
2018-04-24T04:01:03.117Z,7.48
2018-04-24T04:02:03.081Z,7.45
2018-04-24T04:03:03.158Z,7.40
2018-04-24T04:04:03.052Z,7.31
2018-04-24T04:05:02.940Z,7.35
2018-04-24T04:06:02.914Z,7.39
2018-04-24T04:07:02.871Z,7.45
2018-04-24T04:08:02.839Z,7.40
2018-04-24T04:09:02.810Z,7.39
2018-04-24T04:10:02.724Z,7.34
2018-04-24T04:11:02.708Z,7.35
2018-04-24T04:12:02.660Z,7.28
2018-04-24T04:13:02.625Z,7.24
2018-04-24T04:14:02.604Z,7.27
2018-04-24T04:15:02.542Z,7.21
2018-04-24T04:16:02.577Z,7.20
2018-04-24T04:17:02.507Z,7.25
2018-04-24T04:18:02.418Z,7.28
2018-04-24T04:19:02.403Z,7.21
2018-04-24T04:20:02.346Z,7.10
2018-04-24T04:21:02.311Z,7.12
2018-04-24T04:22:02.248Z,7.05
2018-04-24T04:23:02.221Z,7.10
2018-04-24T04:24:02.187Z,7.10
2018-04-24T04:25:02.148Z,7.06
2018-04-24T04:26:02.123Z,7.10
2018-04-24T04:27:02.109Z,7.02
2018-04-24T04:28:02.590Z,7.12
2018-04-24T04:29:01.978Z,7.02
2018-04-24T04:30:01.924Z,6.89
2018-04-24T04:31:01.912Z,6.88
2018-04-24T04:32:01.856Z,6.88
2018-04-24T04:33:01.909Z,6.99
2018-04-24T04:34:01.800Z,6.99
2018-04-24T04:35:01.738Z,7.02
2018-04-24T04:36:01.706Z,7.06
2018-04-24T04:37:01.671Z,7.05
2018-04-24T04:38:01.626Z,7.06
2018-04-24T04:39:01.586Z,7.03
2018-04-24T04:40:01.547Z,7.07
2018-04-24T04:41:01.489Z,7.12
2018-04-24T04:42:01.453Z,7.25
2018-04-24T04:43:01.432Z,7.23
2018-04-24T04:44:01.382Z,7.30
2018-04-24T04:45:01.341Z,7.30
2018-04-24T04:46:01.409Z,7.28
2018-04-24T04:47:01.261Z,7.32
2018-04-24T04:48:01.241Z,7.35
2018-04-24T04:49:01.215Z,7.45
2018-04-24T04:50:01.145Z,7.45
2018-04-24T04:51:01.110Z,7.63
2018-04-24T04:52:01.104Z,7.60
2018-04-24T04:53:01.072Z,7.72
2018-04-24T04:54:01.022Z,7.74
2018-04-24T04:55:00.955Z,7.77
2018-04-24T04:56:01.006Z,7.86
2018-04-24T04:57:00.866Z,7.93
2018-04-24T04:58:00.860Z,7.90
2018-04-24T04:59:00.795Z,8.00
2018-04-24T05:00:00.760Z,8.12
2018-04-24T05:01:00.730Z,8.02
2018-04-24T05:02:00.682Z,8.02
2018-04-24T05:03:00.655Z,8.02
2018-04-24T05:04:00.697Z,8.10
2018-04-24T05:05:00.559Z,8.12
2018-04-24T05:06:00.515Z,8.18
2018-04-24T05:07:00.507Z,8.29
2018-04-24T05:08:00.459Z,8.33
2018-04-24T05:09:00.435Z,8.43
2018-04-24T05:10:00.370Z,8.55
2018-04-24T05:11:00.344Z,8.50
2018-04-24T05:12:00.318Z,8.45
2018-04-24T05:13:00.257Z,8.41
2018-04-24T05:14:00.220Z,8.47
2018-04-24T05:15:00.186Z,8.45
2018-04-24T05:16:00.175Z,8.48
2018-04-24T05:17:00.126Z,8.38
2018-04-24T05:18:00.071Z,8.33
2018-04-24T05:19:00.029Z,8.45
2018-04-24T05:19:59.988Z,8.59
2018-04-24T05:21:00.109Z,8.63
2018-04-24T05:21:59.920Z,8.73
2018-04-24T05:22:59.868Z,8.79
2018-04-24T05:23:59.830Z,8.84
2018-04-24T05:24:59.842Z,8.92
2018-04-24T05:25:59.808Z,8.99
2018-04-24T05:26:59.712Z,9.15
2018-04-24T05:27:59.712Z,9.17
2018-04-24T05:28:59.640Z,9.36
2018-04-24T05:29:59.622Z,9.46
2018-04-24T05:30:59.563Z,9.54
2018-04-24T05:31:59.525Z,9.69
2018-04-24T05:32:59.477Z,9.68
2018-04-24T05:33:59.445Z,9.81
2018-04-24T05:34:59.419Z,9.90
2018-04-24T05:35:59.383Z,9.96
2018-04-24T05:36:59.338Z,10.02
2018-04-24T05:37:59.296Z,10.15
2018-04-24T05:38:59.270Z,10.27
2018-04-24T05:39:59.223Z,10.52
2018-04-24T05:40:59.194Z,10.47
2018-04-24T05:41:59.224Z,10.55
2018-04-24T05:42:59.106Z,10.70
2018-04-24T05:43:59.074Z,10.71
2018-04-24T05:44:59.055Z,10.67
2018-04-24T05:45:59.002Z,10.48
2018-04-24T05:46:58.981Z,10.44
2018-04-24T05:47:58.919Z,10.60
2018-04-24T05:48:58.903Z,10.52
2018-04-24T05:49:58.856Z,10.73
2018-04-24T05:50:58.816Z,10.92
2018-04-24T05:51:58.811Z,10.66
2018-04-24T05:52:58.832Z,10.86
2018-04-24T05:53:58.700Z,11.14
2018-04-24T05:54:58.672Z,11.24
2018-04-24T05:55:58.665Z,11.25
2018-04-24T05:56:58.626Z,11.25
2018-04-24T05:57:58.592Z,11.29
2018-04-24T05:58:58.517Z,11.47
2018-04-24T05:59:58.482Z,11.72
2018-04-24T06:00:58.462Z,11.67
2018-04-24T06:01:58.404Z,11.54
2018-04-24T06:02:58.478Z,11.67
2018-04-24T06:03:58.359Z,11.58
2018-04-24T06:04:58.321Z,11.51
2018-04-24T06:05:58.284Z,11.35
2018-04-24T06:06:58.260Z,11.39
2018-04-24T06:07:58.192Z,11.37
2018-04-24T06:08:58.196Z,11.65
2018-04-24T06:09:58.133Z,12.05
2018-04-24T06:10:58.093Z,12.17
2018-04-24T06:11:58.056Z,12.37
2018-04-24T06:12:58.024Z,12.34
2018-04-24T06:13:57.987Z,12.32
2018-04-24T06:14:57.970Z,12.37
2018-04-24T06:15:57.923Z,12.34
2018-04-24T06:16:57.874Z,12.35
2018-04-24T06:17:57.852Z,12.38
2018-04-24T06:18:57.809Z,12.42
2018-04-24T06:19:57.780Z,12.50
2018-04-24T06:20:57.769Z,12.72
2018-04-24T06:21:57.695Z,12.89
2018-04-24T06:22:57.710Z,13.00
2018-04-24T06:23:57.655Z,13.14
2018-04-24T06:24:57.607Z,13.00
2018-04-24T06:25:57.558Z,13.04
2018-04-24T06:26:57.532Z,13.08
2018-04-24T06:27:57.548Z,13.12
2018-04-24T06:28:57.450Z,13.12
2018-04-24T06:29:57.426Z,13.22
2018-04-24T06:30:57.412Z,13.15
2018-04-24T06:31:57.340Z,13.33
2018-04-24T06:32:57.325Z,13.36
2018-04-24T06:33:57.278Z,13.52
2018-04-24T06:34:57.272Z,13.59
2018-04-24T06:35:57.201Z,13.60
2018-04-24T06:36:57.174Z,13.49
2018-04-24T06:37:57.150Z,13.51
2018-04-24T06:38:57.133Z,13.48
2018-04-24T06:39:57.081Z,13.46
2018-04-24T06:40:57.052Z,13.44
2018-04-24T06:41:57.003Z,13.46
2018-04-24T06:42:56.965Z,13.66
2018-04-24T06:43:57.626Z,13.70
2018-04-24T06:44:56.904Z,13.95
2018-04-24T06:45:56.881Z,13.82
2018-04-24T06:46:56.939Z,13.85
2018-04-24T06:47:56.810Z,13.57
2018-04-24T06:48:56.764Z,13.63
2018-04-24T06:49:56.749Z,13.62
2018-04-24T06:50:56.749Z,13.71
2018-04-24T06:51:56.655Z,13.91
2018-04-24T06:52:56.629Z,14.09
2018-04-24T06:53:56.581Z,14.42
2018-04-24T06:54:56.601Z,15.10
2018-04-24T06:55:56.547Z,16.20
2018-04-24T06:56:57.139Z,17.00
2018-04-24T06:57:56.454Z,17.52
2018-04-24T06:58:56.445Z,18.00
2018-04-24T06:59:56.404Z,17.14
2018-04-24T07:00:56.480Z,17.34
2018-04-24T07:01:56.344Z,17.79
2018-04-24T07:02:56.339Z,17.92
2018-04-24T07:03:56.273Z,18.81
2018-04-24T07:04:56.245Z,18.90
2018-04-24T07:05:56.246Z,19.19
2018-04-24T07:06:56.205Z,19.18
2018-04-24T07:07:56.152Z,19.74
2018-04-24T07:08:56.115Z,19.92
2018-04-24T07:09:56.087Z,20.02
2018-04-24T07:10:56.054Z,19.99
2018-04-24T07:11:56.043Z,19.46
2018-04-24T07:12:56.022Z,19.32
2018-04-24T07:13:55.971Z,18.91
2018-04-24T07:14:55.972Z,19.65
2018-04-24T07:15:55.932Z,19.55
2018-04-24T07:16:55.939Z,19.78
2018-04-24T07:17:55.895Z,19.37
2018-04-24T07:18:55.881Z,19.51
2018-04-24T07:19:55.847Z,20.28
2018-04-24T07:20:55.821Z,20.13
2018-04-24T07:21:55.799Z,19.96
2018-04-24T07:22:55.780Z,19.44
2018-04-24T07:23:55.733Z,18.87
2018-04-24T07:24:55.697Z,19.47
2018-04-24T07:25:55.659Z,19.26
2018-04-24T07:26:55.631Z,18.62
2018-04-24T07:27:55.632Z,19.00
2018-04-24T07:28:55.593Z,18.32
2018-04-24T07:29:55.562Z,17.74
2018-04-24T07:30:55.579Z,17.64
2018-04-24T07:31:55.526Z,17.96
2018-04-24T07:32:55.521Z,17.34
2018-04-24T07:33:55.612Z,17.21
2018-04-24T07:34:55.453Z,16.96
2018-04-24T07:35:55.418Z,17.07
2018-04-24T07:36:55.405Z,16.93
2018-04-24T07:37:55.370Z,17.56
2018-04-24T07:38:55.347Z,17.51
2018-04-24T07:39:55.339Z,17.51
2018-04-24T07:40:55.308Z,17.52
2018-04-24T07:41:55.276Z,17.33
2018-04-24T07:42:55.258Z,16.98
2018-04-24T07:43:56.159Z,17.01
2018-04-24T07:44:55.211Z,16.85
2018-04-24T07:45:55.199Z,17.38
2018-04-24T07:46:55.247Z,17.58
2018-04-24T07:47:55.117Z,17.01
2018-04-24T07:48:55.119Z,16.46
2018-04-24T07:49:55.067Z,16.43
2018-04-24T07:50:55.041Z,16.50
2018-04-24T07:51:55.034Z,16.38
2018-04-24T07:52:54.966Z,16.71
2018-04-24T07:53:55.012Z,16.50
2018-04-24T07:54:54.927Z,16.79
2018-04-24T07:55:54.909Z,17.38
2018-04-24T07:56:54.904Z,17.37
2018-04-24T07:57:54.844Z,17.52
2018-04-24T07:58:54.836Z,17.97
2018-04-24T07:59:54.798Z,18.21
2018-04-24T08:00:54.787Z,18.51
2018-04-24T08:01:54.749Z,17.97
2018-04-24T08:02:54.706Z,18.20
2018-04-24T08:03:54.678Z,18.21
2018-04-24T08:04:54.644Z,18.02
2018-04-24T08:05:55.152Z,18.00
2018-04-24T08:06:54.583Z,17.78
2018-04-24T08:07:54.588Z,18.07
2018-04-24T08:08:54.533Z,17.82
2018-04-24T08:09:54.500Z,18.33
2018-04-24T08:10:54.490Z,18.90
2018-04-24T08:11:54.460Z,19.21
2018-04-24T08:12:54.410Z,19.88
2018-04-24T08:13:54.393Z,19.92
2018-04-24T08:14:54.376Z,19.84
2018-04-24T08:15:54.347Z,19.08
2018-04-24T08:16:54.310Z,18.51
2018-04-24T08:17:54.284Z,18.02
2018-04-24T08:18:54.331Z,18.60
2018-04-24T08:19:54.241Z,18.75
2018-04-24T08:20:54.243Z,19.04
2018-04-24T08:21:54.191Z,17.99
2018-04-24T08:22:54.323Z,17.54
2018-04-24T08:23:54.136Z,17.99
2018-04-24T08:24:54.139Z,18.05
2018-04-24T08:25:54.167Z,17.22
2018-04-24T08:26:54.046Z,17.46
2018-04-24T08:27:54.023Z,17.62
2018-04-24T08:28:54.058Z,17.90
2018-04-24T08:29:53.969Z,17.89
2018-04-24T08:30:53.965Z,18.29
2018-04-24T08:31:54.665Z,17.86
2018-04-24T08:32:53.870Z,18.39
2018-04-24T08:33:53.909Z,18.63
2018-04-24T08:34:53.853Z,17.38
2018-04-24T08:35:53.801Z,17.77
2018-04-24T08:36:53.777Z,17.56
2018-04-24T08:37:53.771Z,17.97
2018-04-24T08:38:53.749Z,18.07
2018-04-24T08:39:53.689Z,17.92
2018-04-24T08:40:53.652Z,17.96
2018-04-24T08:41:53.665Z,18.11
2018-04-24T08:42:53.644Z,18.94
2018-04-24T08:43:53.599Z,18.63
2018-04-24T08:44:53.552Z,18.26
2018-04-24T08:45:53.519Z,19.08
2018-04-24T08:46:53.542Z,19.84
2018-04-24T08:47:53.489Z,19.36
2018-04-24T08:48:53.493Z,20.13
2018-04-24T08:49:53.428Z,20.57
2018-04-24T08:50:53.384Z,20.92
2018-04-24T08:51:53.359Z,21.34
2018-04-24T08:52:53.388Z,20.01
2018-04-24T08:53:53.324Z,19.88
2018-04-24T08:54:53.318Z,19.11
2018-04-24T08:55:53.260Z,18.94
2018-04-24T08:56:53.244Z,19.58
2018-04-24T08:57:53.207Z,19.91
2018-04-24T08:58:53.182Z,19.18
2018-04-24T08:59:53.152Z,20.13
2018-04-24T09:00:53.123Z,19.48
2018-04-24T09:01:53.129Z,18.91
2018-04-24T09:02:53.075Z,19.99
2018-04-24T09:03:53.057Z,20.13
2018-04-24T09:04:53.025Z,20.38
2018-04-24T09:05:53.025Z,20.47
2018-04-24T09:06:52.985Z,20.51
2018-04-24T09:07:52.954Z,20.61
2018-04-24T09:08:52.935Z,20.76
2018-04-24T09:09:52.885Z,20.23
2018-04-24T09:10:52.893Z,19.71
2018-04-24T09:11:53.682Z,19.32
2018-04-24T09:12:52.827Z,19.08
2018-04-24T09:13:52.798Z,18.70
2018-04-24T09:14:52.793Z,18.41
2018-04-24T09:15:52.752Z,18.72
2018-04-24T09:16:52.745Z,19.48
2018-04-24T09:17:52.716Z,19.22
2018-04-24T09:18:52.705Z,19.48
2018-04-24T09:19:52.641Z,19.39
2018-04-24T09:20:52.673Z,19.91
2018-04-24T09:21:52.628Z,20.29
2018-04-24T09:22:52.582Z,20.16
2018-04-24T09:23:52.554Z,19.91
2018-04-24T09:24:52.516Z,19.74
2018-04-24T09:25:52.497Z,20.23
2018-04-24T09:26:52.535Z,20.72
2018-04-24T09:27:52.460Z,21.25
2018-04-24T09:28:52.432Z,20.67
2018-04-24T09:29:52.405Z,20.18
2018-04-24T09:30:52.397Z,20.36
2018-04-24T09:31:52.349Z,20.76
2018-04-24T09:32:52.345Z,20.95
2018-04-24T09:33:52.297Z,21.59
2018-04-24T09:34:52.271Z,21.07
2018-04-24T09:35:52.253Z,20.97
2018-04-24T09:36:52.224Z,21.31
2018-04-24T09:37:52.198Z,22.15
2018-04-24T09:38:52.192Z,23.00
2018-04-24T09:39:52.169Z,22.94
2018-04-24T09:40:52.150Z,22.57
2018-04-24T09:41:52.101Z,22.64
2018-04-24T09:42:52.106Z,21.01
2018-04-24T09:43:52.105Z,21.04
2018-04-24T09:44:52.074Z,21.49
2018-04-24T09:45:52.061Z,20.03
2018-04-24T09:46:52.077Z,20.20
2018-04-24T09:47:51.987Z,20.23
2018-04-24T09:48:52.039Z,20.77
2018-04-24T09:49:51.926Z,21.54
2018-04-24T09:50:51.894Z,20.06
2018-04-24T09:51:51.876Z,20.28
2018-04-24T09:52:51.857Z,21.34
2018-04-24T09:53:51.852Z,21.77
2018-04-24T09:54:51.807Z,22.67
2018-04-24T09:55:51.777Z,23.32
2018-04-24T09:56:51.774Z,22.10
2018-04-24T09:57:51.733Z,21.94
2018-04-24T09:58:51.699Z,21.53
2018-04-24T09:59:51.695Z,21.03
2018-04-24T10:00:51.653Z,19.73
2018-04-24T10:01:51.631Z,20.05
2018-04-24T10:02:51.661Z,20.87
2018-04-24T10:03:51.680Z,21.49
2018-04-24T10:04:51.641Z,21.43
2018-04-24T10:05:51.597Z,20.82
2018-04-24T10:06:51.521Z,21.16
2018-04-24T10:07:51.646Z,20.26
2018-04-24T10:08:51.468Z,20.98
2018-04-24T10:09:51.449Z,21.80
2018-04-24T10:10:51.431Z,22.05
2018-04-24T10:11:51.397Z,21.03
2018-04-24T10:12:51.391Z,21.09
2018-04-24T10:13:51.362Z,20.70
2018-04-24T10:14:51.339Z,20.29
2018-04-24T10:15:51.339Z,20.94
2018-04-24T10:16:51.278Z,22.22
2018-04-24T10:17:51.283Z,22.46
2018-04-24T10:18:51.239Z,22.46
2018-04-24T10:19:51.283Z,22.33
2018-04-24T10:20:51.209Z,22.57
2018-04-24T10:21:51.291Z,22.46
2018-04-24T10:22:51.156Z,22.14
2018-04-24T10:23:51.135Z,21.91
2018-04-24T10:24:51.114Z,21.17
2018-04-24T10:25:51.089Z,21.84
2018-04-24T10:26:51.077Z,22.22
2018-04-24T10:27:51.041Z,20.99
2018-04-24T10:28:51.044Z,21.80
2018-04-24T10:29:50.994Z,22.02
2018-04-24T10:30:50.975Z,22.35
2018-04-24T10:31:50.958Z,22.80
2018-04-24T10:32:50.928Z,23.15
2018-04-24T10:33:50.889Z,23.47
2018-04-24T10:34:50.889Z,22.45
2018-04-24T10:35:50.850Z,22.46
2018-04-24T10:36:50.842Z,22.31
2018-04-24T10:37:50.835Z,22.75
2018-04-24T10:38:50.813Z,22.21
2018-04-24T10:39:50.758Z,21.52
2018-04-24T10:40:50.743Z,21.53
2018-04-24T10:41:50.718Z,20.55
2018-04-24T10:42:50.735Z,21.34
2018-04-24T10:43:50.843Z,21.68
2018-04-24T10:44:50.655Z,22.17
2018-04-24T10:45:50.627Z,21.82
2018-04-24T10:46:50.595Z,21.16
2018-04-24T10:47:50.585Z,19.86
2018-04-24T10:48:50.560Z,20.33
2018-04-24T10:49:50.552Z,21.06
2018-04-24T10:50:50.524Z,21.03
2018-04-24T10:51:50.542Z,20.89
2018-04-24T10:52:50.457Z,20.58
2018-04-24T10:53:50.448Z,20.08
2018-04-24T10:54:50.426Z,20.47
2018-04-24T10:55:50.423Z,20.72
2018-04-24T10:56:50.386Z,20.66
2018-04-24T10:57:50.355Z,20.59
2018-04-24T10:58:50.325Z,20.16
2018-04-24T10:59:50.298Z,20.52
2018-04-24T11:00:50.281Z,20.64
2018-04-24T11:01:50.259Z,20.87
2018-04-24T11:02:50.236Z,20.72
2018-04-24T11:03:50.195Z,20.59
2018-04-24T11:04:50.169Z,20.64
2018-04-24T11:05:50.186Z,20.10
2018-04-24T11:06:50.143Z,20.13
2018-04-24T11:07:50.110Z,19.78
2018-04-24T11:08:50.083Z,19.61
2018-04-24T11:09:50.061Z,19.76
2018-04-24T11:10:50.033Z,20.33
2018-04-24T11:11:50.076Z,19.81
2018-04-24T11:12:49.990Z,20.10
2018-04-24T11:13:49.968Z,20.36
2018-04-24T11:14:49.937Z,20.17
2018-04-24T11:15:49.902Z,20.03
2018-04-24T11:16:49.915Z,20.38
2018-04-24T11:17:49.869Z,21.01
2018-04-24T11:18:49.834Z,20.88
2018-04-24T11:19:49.793Z,20.64
2018-04-24T11:20:49.778Z,20.43
2018-04-24T11:21:49.751Z,20.10
2018-04-24T11:22:49.730Z,20.01
2018-04-24T11:23:49.741Z,20.16
2018-04-24T11:24:49.661Z,19.78
2018-04-24T11:25:49.649Z,19.48
2018-04-24T11:26:49.687Z,19.98
2018-04-24T11:27:49.592Z,19.71
2018-04-24T11:28:49.560Z,20.31
2018-04-24T11:29:49.572Z,20.20
2018-04-24T11:30:49.518Z,20.88
2018-04-24T11:31:49.481Z,20.28
2018-04-24T11:32:49.498Z,20.32
2018-04-24T11:33:49.489Z,20.98
2018-04-24T11:34:49.427Z,21.04
2018-04-24T11:35:49.391Z,20.95
2018-04-24T11:36:49.391Z,20.52
2018-04-24T11:37:49.365Z,20.57
2018-04-24T11:38:49.335Z,20.10
2018-04-24T11:39:49.310Z,20.24
2018-04-24T11:40:49.310Z,19.99
2018-04-24T11:41:49.224Z,20.59
2018-04-24T11:42:49.201Z,20.76
2018-04-24T11:43:49.235Z,21.14
2018-04-24T11:44:49.152Z,20.98
2018-04-24T11:45:49.133Z,20.55
2018-04-24T11:46:49.118Z,20.50
2018-04-24T11:47:49.084Z,20.59
2018-04-24T11:48:49.060Z,20.69
2018-04-24T11:49:49.041Z,20.85
2018-04-24T11:50:48.985Z,20.26
2018-04-24T11:51:48.979Z,20.38
2018-04-24T11:52:48.958Z,20.36
2018-04-24T11:53:48.950Z,20.20
2018-04-24T11:54:48.911Z,20.10
2018-04-24T11:55:48.866Z,20.39
2018-04-24T11:56:48.838Z,20.33
2018-04-24T11:57:48.804Z,20.55
2018-04-24T11:58:48.865Z,21.13
2018-04-24T11:59:48.755Z,21.38
2018-04-24T12:00:48.727Z,21.65
2018-04-24T12:01:48.733Z,21.91
2018-04-24T12:02:48.709Z,21.24
2018-04-24T12:03:48.647Z,21.21
2018-04-24T12:04:48.634Z,20.99
2018-04-24T12:05:48.621Z,21.32
2018-04-24T12:06:48.579Z,21.88
2018-04-24T12:07:48.573Z,21.16
2018-04-24T12:08:48.536Z,21.19
2018-04-24T12:09:48.507Z,21.61
2018-04-24T12:10:48.538Z,21.17
2018-04-24T12:11:48.453Z,20.82
2018-04-24T12:12:48.465Z,21.03
2018-04-24T12:13:48.394Z,20.92
2018-04-24T12:14:48.397Z,20.35
2018-04-24T12:15:48.389Z,20.20
2018-04-24T12:16:48.316Z,20.38
2018-04-24T12:17:48.302Z,20.43
2018-04-24T12:18:48.280Z,20.72
2018-04-24T12:19:48.243Z,21.54
2018-04-24T12:20:48.223Z,21.99
2018-04-24T12:21:48.207Z,22.36
2018-04-24T12:22:48.184Z,21.94
2018-04-24T12:23:48.146Z,21.09
2018-04-24T12:24:48.151Z,21.27
2018-04-24T12:25:48.090Z,21.54
2018-04-24T12:26:48.068Z,21.68
2018-04-24T12:27:48.110Z,21.77
2018-04-24T12:28:48.030Z,22.33
2018-04-24T12:29:47.997Z,22.20
2018-04-24T12:30:47.996Z,21.82
2018-04-24T12:31:47.942Z,21.62
2018-04-24T12:32:47.913Z,21.65
2018-04-24T12:33:47.908Z,21.79
2018-04-24T12:34:47.870Z,21.46
2018-04-24T12:35:47.829Z,21.16
2018-04-24T12:36:47.819Z,21.17
2018-04-24T12:37:47.805Z,21.43
2018-04-24T12:38:47.777Z,21.13
2018-04-24T12:39:47.732Z,21.17
2018-04-24T12:40:47.730Z,21.50
2018-04-24T12:41:47.696Z,21.27
2018-04-24T12:42:47.657Z,21.42
2018-04-24T12:43:47.634Z,21.38
2018-04-24T12:44:47.618Z,21.49
2018-04-24T12:45:47.583Z,21.34
2018-04-24T12:46:47.572Z,21.17
2018-04-24T12:47:47.524Z,21.07
2018-04-24T12:48:47.507Z,21.54
2018-04-24T12:49:47.458Z,21.21
2018-04-24T12:50:47.463Z,20.67
2018-04-24T12:51:47.430Z,20.76
2018-04-24T12:52:50.383Z,20.87
2018-04-24T12:53:47.358Z,20.97
2018-04-24T12:54:47.338Z,21.04
2018-04-24T12:55:47.329Z,21.38
2018-04-24T12:56:47.298Z,21.16
2018-04-24T12:57:47.292Z,20.48
2018-04-24T12:58:47.237Z,20.57
2018-04-24T12:59:47.196Z,20.72
2018-04-24T13:00:47.188Z,20.66
2018-04-24T13:01:47.157Z,21.04
2018-04-24T13:02:47.133Z,21.14